sensor_id;sensor_type;location;lat;lon;timestamp;P1;durP1;ratioP1;P2;durP2;ratioP2
18677;SDS011;9469;51.114;13.914;2022-07-21T00:00:16;6.35;;;3.50;;
18677;SDS011;9469;51.114;13.914;2022-07-21T00:05:23;10.30;;;3.30;;
18677;SDS011;9469;51.114;13.914;2022-07-21T00:10:31;5.63;;;3.13;;
18677;SDS011;9469;51.114;13.914;2022-07-21T00:15:36;4.28;;;3.20;;
18677;SDS011;9469;51.114;13.914;2022-07-21T00:20:41;5.75;;;2.75;;
18677;SDS011;9469;51.114;13.914;2022-07-21T00:25:51;8.05;;;3.08;;
18677;SDS011;9469;51.114;13.914;2022-07-21T00:30:57;4.13;;;3.10;;
18677;SDS011;9469;51.114;13.914;2022-07-21T00:36:02;4.05;;;3.28;;
18677;SDS011;9469;51.114;13.914;2022-07-21T00:41:10;6.97;;;3.55;;
18677;SDS011;9469;51.114;13.914;2022-07-21T00:46:15;6.00;;;3.58;;
18677;SDS011;9469;51.114;13.914;2022-07-21T00:51:24;7.50;;;3.15;;
18677;SDS011;9469;51.114;13.914;2022-07-21T00:56:31;6.73;;;3.53;;
18677;SDS011;9469;51.114;13.914;2022-07-21T01:01:36;4.80;;;3.22;;
18677;SDS011;9469;51.114;13.914;2022-07-21T01:06:42;5.35;;;3.10;;
18677;SDS011;9469;51.114;13.914;2022-07-21T01:11:50;6.50;;;2.97;;
18677;SDS011;9469;51.114;13.914;2022-07-21T01:16:56;4.00;;;3.15;;
18677;SDS011;9469;51.114;13.914;2022-07-21T01:22:03;8.25;;;3.92;;
18677;SDS011;9469;51.114;13.914;2022-07-21T01:27:09;5.30;;;2.67;;
18677;SDS011;9469;51.114;13.914;2022-07-21T01:32:14;5.32;;;2.95;;
18677;SDS011;9469;51.114;13.914;2022-07-21T01:37:27;14.75;;;7.85;;
18677;SDS011;9469;51.114;13.914;2022-07-21T01:42:33;8.45;;;3.38;;
18677;SDS011;9469;51.114;13.914;2022-07-21T01:47:38;9.07;;;3.72;;
18677;SDS011;9469;51.114;13.914;2022-07-21T01:52:46;8.02;;;4.05;;
18677;SDS011;9469;51.114;13.914;2022-07-21T01:57:52;9.75;;;5.80;;
18677;SDS011;9469;51.114;13.914;2022-07-21T02:02:57;5.38;;;3.80;;
18677;SDS011;9469;51.114;13.914;2022-07-21T02:08:04;8.50;;;3.33;;
18677;SDS011;9469;51.114;13.914;2022-07-21T02:13:09;3.90;;;2.95;;
18677;SDS011;9469;51.114;13.914;2022-07-21T02:18:14;5.55;;;3.40;;
18677;SDS011;9469;51.114;13.914;2022-07-21T02:23:22;7.40;;;4.20;;
18677;SDS011;9469;51.114;13.914;2022-07-21T02:28:28;13.53;;;7.13;;
18677;SDS011;9469;51.114;13.914;2022-07-21T02:33:33;14.83;;;4.67;;
18677;SDS011;9469;51.114;13.914;2022-07-21T02:38:41;7.83;;;3.90;;
18677;SDS011;9469;51.114;13.914;2022-07-21T02:43:46;8.93;;;5.53;;
18677;SDS011;9469;51.114;13.914;2022-07-21T02:48:51;23.33;;;12.57;;
18677;SDS011;9469;51.114;13.914;2022-07-21T02:54:00;25.52;;;15.30;;
18677;SDS011;9469;51.114;13.914;2022-07-21T02:59:05;24.55;;;13.95;;
18677;SDS011;9469;51.114;13.914;2022-07-21T03:04:10;11.95;;;7.30;;
18677;SDS011;9469;51.114;13.914;2022-07-21T03:09:19;14.07;;;7.82;;
18677;SDS011;9469;51.114;13.914;2022-07-21T03:14:30;13.68;;;8.25;;
18677;SDS011;9469;51.114;13.914;2022-07-21T03:19:35;20.08;;;9.65;;
18677;SDS011;9469;51.114;13.914;2022-07-21T03:24:43;14.65;;;9.93;;
18677;SDS011;9469;51.114;13.914;2022-07-21T03:29:48;19.88;;;11.00;;
18677;SDS011;9469;51.114;13.914;2022-07-21T03:34:53;16.98;;;8.20;;
18677;SDS011;9469;51.114;13.914;2022-07-21T03:40:00;21.83;;;11.02;;
18677;SDS011;9469;51.114;13.914;2022-07-21T03:45:06;21.05;;;12.25;;
18677;SDS011;9469;51.114;13.914;2022-07-21T03:50:12;16.13;;;10.10;;
18677;SDS011;9469;51.114;13.914;2022-07-21T03:55:21;26.80;;;13.65;;
18677;SDS011;9469;51.114;13.914;2022-07-21T04:00:27;17.02;;;9.57;;
18677;SDS011;9469;51.114;13.914;2022-07-21T04:05:34;17.98;;;11.27;;
18677;SDS011;9469;51.114;13.914;2022-07-21T04:10:43;18.90;;;11.15;;
18677;SDS011;9469;51.114;13.914;2022-07-21T04:15:48;22.30;;;12.73;;
18677;SDS011;9469;51.114;13.914;2022-07-21T04:20:53;23.85;;;12.77;;
18677;SDS011;9469;51.114;13.914;2022-07-21T04:26:01;24.88;;;12.93;;
18677;SDS011;9469;51.114;13.914;2022-07-21T04:31:06;29.35;;;15.95;;
18677;SDS011;9469;51.114;13.914;2022-07-21T04:36:12;14.85;;;9.75;;
18677;SDS011;9469;51.114;13.914;2022-07-21T04:41:20;18.92;;;9.43;;
18677;SDS011;9469;51.114;13.914;2022-07-21T04:46:25;12.55;;;8.77;;
18677;SDS011;9469;51.114;13.914;2022-07-21T04:51:31;22.27;;;9.93;;
18677;SDS011;9469;51.114;13.914;2022-07-21T04:56:39;19.08;;;10.35;;
18677;SDS011;9469;51.114;13.914;2022-07-21T05:01:44;16.25;;;10.60;;
18677;SDS011;9469;51.114;13.914;2022-07-21T05:06:49;16.73;;;8.07;;
18677;SDS011;9469;51.114;13.914;2022-07-21T05:11:57;10.65;;;7.07;;
18677;SDS011;9469;51.114;13.914;2022-07-21T05:17:02;11.07;;;6.72;;
18677;SDS011;9469;51.114;13.914;2022-07-21T05:22:07;11.20;;;6.90;;
18677;SDS011;9469;51.114;13.914;2022-07-21T05:27:14;13.70;;;6.15;;
18677;SDS011;9469;51.114;13.914;2022-07-21T05:32:19;8.07;;;6.15;;
18677;SDS011;9469;51.114;13.914;2022-07-21T05:37:24;9.20;;;5.90;;
18677;SDS011;9469;51.114;13.914;2022-07-21T05:42:32;9.10;;;6.38;;
18677;SDS011;9469;51.114;13.914;2022-07-21T05:47:37;12.35;;;5.97;;
18677;SDS011;9469;51.114;13.914;2022-07-21T05:52:42;7.93;;;6.13;;
18677;SDS011;9469;51.114;13.914;2022-07-21T05:57:50;7.50;;;5.22;;
18677;SDS011;9469;51.114;13.914;2022-07-21T06:02:55;9.05;;;6.10;;
18677;SDS011;9469;51.114;13.914;2022-07-21T06:08:00;8.75;;;5.85;;
18677;SDS011;9469;51.114;13.914;2022-07-21T06:13:07;10.60;;;5.57;;
18677;SDS011;9469;51.114;13.914;2022-07-21T06:18:12;10.30;;;5.95;;
18677;SDS011;9469;51.114;13.914;2022-07-21T06:23:17;10.93;;;6.28;;
18677;SDS011;9469;51.114;13.914;2022-07-21T06:28:25;13.13;;;6.70;;
18677;SDS011;9469;51.114;13.914;2022-07-21T06:33:30;10.90;;;5.80;;
18677;SDS011;9469;51.114;13.914;2022-07-21T06:38:35;10.40;;;6.38;;
18677;SDS011;9469;51.114;13.914;2022-07-21T06:43:43;11.57;;;6.03;;
18677;SDS011;9469;51.114;13.914;2022-07-21T06:48:48;7.65;;;5.97;;
18677;SDS011;9469;51.114;13.914;2022-07-21T06:53:53;8.80;;;5.53;;
18677;SDS011;9469;51.114;13.914;2022-07-21T06:59:02;8.85;;;5.45;;
18677;SDS011;9469;51.114;13.914;2022-07-21T07:04:09;9.05;;;5.15;;
18677;SDS011;9469;51.114;13.914;2022-07-21T07:09:15;10.27;;;6.40;;
18677;SDS011;9469;51.114;13.914;2022-07-21T07:14:22;7.82;;;5.55;;
18677;SDS011;9469;51.114;13.914;2022-07-21T07:19:27;9.30;;;5.72;;
18677;SDS011;9469;51.114;13.914;2022-07-21T07:24:33;9.68;;;5.70;;
18677;SDS011;9469;51.114;13.914;2022-07-21T07:29:40;7.95;;;5.22;;
18677;SDS011;9469;51.114;13.914;2022-07-21T07:34:45;7.95;;;5.50;;
18677;SDS011;9469;51.114;13.914;2022-07-21T07:39:50;11.90;;;5.85;;
18677;SDS011;9469;51.114;13.914;2022-07-21T07:45:00;10.20;;;5.63;;
18677;SDS011;9469;51.114;13.914;2022-07-21T07:50:07;8.95;;;6.30;;
18677;SDS011;9469;51.114;13.914;2022-07-21T07:55:13;7.65;;;5.50;;
18677;SDS011;9469;51.114;13.914;2022-07-21T08:00:21;7.75;;;5.15;;
18677;SDS011;9469;51.114;13.914;2022-07-21T08:05:46;7.10;;;5.05;;
18677;SDS011;9469;51.114;13.914;2022-07-21T08:10:52;7.88;;;5.53;;
18677;SDS011;9469;51.114;13.914;2022-07-21T08:15:59;7.57;;;5.32;;
18677;SDS011;9469;51.114;13.914;2022-07-21T08:21:05;11.65;;;5.55;;
18677;SDS011;9469;51.114;13.914;2022-07-21T08:26:10;8.45;;;5.47;;
18677;SDS011;9469;51.114;13.914;2022-07-21T08:31:18;6.32;;;4.80;;
18677;SDS011;9469;51.114;13.914;2022-07-21T08:36:23;7.57;;;5.07;;
18677;SDS011;9469;51.114;13.914;2022-07-21T08:41:28;7.55;;;5.65;;
18677;SDS011;9469;51.114;13.914;2022-07-21T08:46:39;7.45;;;5.57;;
18677;SDS011;9469;51.114;13.914;2022-07-21T08:51:46;6.50;;;5.28;;
18677;SDS011;9469;51.114;13.914;2022-07-21T08:56:52;6.32;;;5.47;;
18677;SDS011;9469;51.114;13.914;2022-07-21T09:02:01;7.35;;;5.35;;
18677;SDS011;9469;51.114;13.914;2022-07-21T09:07:08;11.10;;;6.25;;
18677;SDS011;9469;51.114;13.914;2022-07-21T09:12:13;7.72;;;5.72;;
18677;SDS011;9469;51.114;13.914;2022-07-21T09:17:21;9.90;;;5.60;;
18677;SDS011;9469;51.114;13.914;2022-07-21T09:23:00;6.22;;;5.63;;
18677;SDS011;9469;51.114;13.914;2022-07-21T09:28:08;7.82;;;5.97;;
18677;SDS011;9469;51.114;13.914;2022-07-21T09:33:21;7.68;;;5.80;;
18677;SDS011;9469;51.114;13.914;2022-07-21T09:38:29;9.50;;;6.30;;
18677;SDS011;9469;51.114;13.914;2022-07-21T09:43:37;8.32;;;5.63;;
18677;SDS011;9469;51.114;13.914;2022-07-21T09:48:49;7.78;;;5.13;;
18677;SDS011;9469;51.114;13.914;2022-07-21T09:54:15;7.88;;;5.78;;
18677;SDS011;9469;51.114;13.914;2022-07-21T09:59:20;13.93;;;5.95;;
18677;SDS011;9469;51.114;13.914;2022-07-21T10:04:50;7.68;;;5.00;;
18677;SDS011;9469;51.114;13.914;2022-07-21T10:10:08;5.10;;;4.60;;
18677;SDS011;9469;51.114;13.914;2022-07-21T10:15:14;6.72;;;4.80;;
18677;SDS011;9469;51.114;13.914;2022-07-21T10:20:24;7.13;;;4.60;;
18677;SDS011;9469;51.114;13.914;2022-07-21T10:25:32;5.60;;;5.00;;
18677;SDS011;9469;51.114;13.914;2022-07-21T10:30:40;5.90;;;5.15;;
18677;SDS011;9469;51.114;13.914;2022-07-21T10:35:49;7.93;;;4.72;;
18677;SDS011;9469;51.114;13.914;2022-07-21T10:40:55;7.68;;;5.20;;
18677;SDS011;9469;51.114;13.914;2022-07-21T10:46:03;7.95;;;4.85;;
18677;SDS011;9469;51.114;13.914;2022-07-21T10:51:45;6.32;;;5.03;;
18677;SDS011;9469;51.114;13.914;2022-07-21T11:02:24;8.82;;;5.40;;
18677;SDS011;9469;51.114;13.914;2022-07-21T11:13:12;6.88;;;4.72;;
18677;SDS011;9469;51.114;13.914;2022-07-21T11:18:19;8.30;;;5.18;;
18677;SDS011;9469;51.114;13.914;2022-07-21T11:23:33;10.02;;;4.82;;
18677;SDS011;9469;51.114;13.914;2022-07-21T11:28:43;5.75;;;4.47;;
18677;SDS011;9469;51.114;13.914;2022-07-21T11:33:49;7.20;;;3.88;;
18677;SDS011;9469;51.114;13.914;2022-07-21T11:39:03;7.97;;;3.72;;
18677;SDS011;9469;51.114;13.914;2022-07-21T11:44:11;4.95;;;4.05;;
18677;SDS011;9469;51.114;13.914;2022-07-21T11:49:28;6.68;;;4.28;;
18677;SDS011;9469;51.114;13.914;2022-07-21T11:54:35;6.97;;;4.32;;
18677;SDS011;9469;51.114;13.914;2022-07-21T11:59:44;4.35;;;3.95;;
18677;SDS011;9469;51.114;13.914;2022-07-21T12:04:50;6.32;;;3.97;;
18677;SDS011;9469;51.114;13.914;2022-07-21T12:10:01;6.43;;;4.20;;
18677;SDS011;9469;51.114;13.914;2022-07-21T12:15:16;5.25;;;4.05;;
18677;SDS011;9469;51.114;13.914;2022-07-21T12:20:25;7.55;;;4.68;;
18677;SDS011;9469;51.114;13.914;2022-07-21T12:25:33;5.72;;;4.03;;
18677;SDS011;9469;51.114;13.914;2022-07-21T12:30:44;7.90;;;4.88;;
18677;SDS011;9469;51.114;13.914;2022-07-21T12:35:57;7.78;;;4.03;;
18677;SDS011;9469;51.114;13.914;2022-07-21T12:41:05;5.30;;;4.20;;
18677;SDS011;9469;51.114;13.914;2022-07-21T12:46:31;4.20;;;3.80;;
18677;SDS011;9469;51.114;13.914;2022-07-21T12:51:40;5.95;;;3.90;;
18677;SDS011;9469;51.114;13.914;2022-07-21T12:56:45;8.55;;;4.50;;
18677;SDS011;9469;51.114;13.914;2022-07-21T13:01:53;6.15;;;3.88;;
18677;SDS011;9469;51.114;13.914;2022-07-21T13:06:58;5.63;;;4.18;;
18677;SDS011;9469;51.114;13.914;2022-07-21T13:12:04;6.60;;;3.92;;
18677;SDS011;9469;51.114;13.914;2022-07-21T13:17:13;7.57;;;4.30;;
18677;SDS011;9469;51.114;13.914;2022-07-21T13:22:18;6.78;;;4.03;;
18677;SDS011;9469;51.114;13.914;2022-07-21T13:27:23;8.35;;;4.60;;
18677;SDS011;9469;51.114;13.914;2022-07-21T13:32:34;6.53;;;4.22;;
18677;SDS011;9469;51.114;13.914;2022-07-21T13:37:42;5.40;;;4.25;;
18677;SDS011;9469;51.114;13.914;2022-07-21T13:42:47;7.18;;;4.00;;
18677;SDS011;9469;51.114;13.914;2022-07-21T13:48:09;5.47;;;4.47;;
18677;SDS011;9469;51.114;13.914;2022-07-21T13:53:15;5.78;;;4.30;;
18677;SDS011;9469;51.114;13.914;2022-07-21T13:58:21;6.53;;;4.25;;
18677;SDS011;9469;51.114;13.914;2022-07-21T14:03:29;4.55;;;4.15;;
18677;SDS011;9469;51.114;13.914;2022-07-21T14:08:35;6.55;;;4.50;;
18677;SDS011;9469;51.114;13.914;2022-07-21T14:13:40;5.65;;;3.83;;
18677;SDS011;9469;51.114;13.914;2022-07-21T14:18:49;9.70;;;4.68;;
18677;SDS011;9469;51.114;13.914;2022-07-21T14:23:55;5.45;;;3.65;;
18677;SDS011;9469;51.114;13.914;2022-07-21T14:29:13;5.72;;;3.90;;
18677;SDS011;9469;51.114;13.914;2022-07-21T14:34:21;5.10;;;4.20;;
18677;SDS011;9469;51.114;13.914;2022-07-21T14:39:26;8.88;;;4.65;;
18677;SDS011;9469;51.114;13.914;2022-07-21T14:44:31;5.07;;;4.28;;
18677;SDS011;9469;51.114;13.914;2022-07-21T14:49:39;5.88;;;5.30;;
18677;SDS011;9469;51.114;13.914;2022-07-21T14:54:44;5.68;;;4.53;;
18677;SDS011;9469;51.114;13.914;2022-07-21T14:59:49;9.23;;;5.07;;
18677;SDS011;9469;51.114;13.914;2022-07-21T15:04:57;6.78;;;5.00;;
18677;SDS011;9469;51.114;13.914;2022-07-21T15:10:02;6.72;;;4.75;;
18677;SDS011;9469;51.114;13.914;2022-07-21T15:15:08;7.18;;;5.43;;
18677;SDS011;9469;51.114;13.914;2022-07-21T15:20:16;6.70;;;5.93;;
18677;SDS011;9469;51.114;13.914;2022-07-21T15:25:21;5.97;;;5.28;;
18677;SDS011;9469;51.114;13.914;2022-07-21T15:30:27;6.53;;;5.30;;
18677;SDS011;9469;51.114;13.914;2022-07-21T15:35:35;5.82;;;5.22;;
18677;SDS011;9469;51.114;13.914;2022-07-21T15:40:40;5.80;;;5.20;;
18677;SDS011;9469;51.114;13.914;2022-07-21T15:45:45;7.05;;;5.22;;
18677;SDS011;9469;51.114;13.914;2022-07-21T15:50:54;6.55;;;5.95;;
18677;SDS011;9469;51.114;13.914;2022-07-21T15:55:59;7.45;;;5.93;;
18677;SDS011;9469;51.114;13.914;2022-07-21T16:01:04;6.45;;;5.80;;
18677;SDS011;9469;51.114;13.914;2022-07-21T16:06:12;8.32;;;5.55;;
18677;SDS011;9469;51.114;13.914;2022-07-21T16:11:18;7.93;;;5.65;;
18677;SDS011;9469;51.114;13.914;2022-07-21T16:16:23;6.68;;;6.03;;
18677;SDS011;9469;51.114;13.914;2022-07-21T16:21:31;6.63;;;5.90;;
18677;SDS011;9469;51.114;13.914;2022-07-21T16:26:38;8.32;;;6.50;;
18677;SDS011;9469;51.114;13.914;2022-07-21T16:31:43;10.38;;;7.05;;
18677;SDS011;9469;51.114;13.914;2022-07-21T16:36:51;10.25;;;7.47;;
18677;SDS011;9469;51.114;13.914;2022-07-21T16:41:57;9.93;;;7.18;;
18677;SDS011;9469;51.114;13.914;2022-07-21T16:47:10;9.35;;;6.47;;
18677;SDS011;9469;51.114;13.914;2022-07-21T16:52:18;8.95;;;6.32;;
18677;SDS011;9469;51.114;13.914;2022-07-21T16:57:23;7.97;;;6.15;;
18677;SDS011;9469;51.114;13.914;2022-07-21T17:02:28;8.30;;;6.45;;
18677;SDS011;9469;51.114;13.914;2022-07-21T17:07:36;8.82;;;6.47;;
18677;SDS011;9469;51.114;13.914;2022-07-21T17:12:41;7.82;;;6.00;;
18677;SDS011;9469;51.114;13.914;2022-07-21T17:17:46;7.05;;;5.75;;
18677;SDS011;9469;51.114;13.914;2022-07-21T17:22:55;6.15;;;5.65;;
18677;SDS011;9469;51.114;13.914;2022-07-21T17:28:06;5.60;;;4.72;;
18677;SDS011;9469;51.114;13.914;2022-07-21T17:33:12;6.50;;;5.78;;
18677;SDS011;9469;51.114;13.914;2022-07-21T17:38:20;5.68;;;5.18;;
18677;SDS011;9469;51.114;13.914;2022-07-21T17:43:25;6.50;;;5.90;;
18677;SDS011;9469;51.114;13.914;2022-07-21T17:48:30;7.57;;;6.18;;
18677;SDS011;9469;51.114;13.914;2022-07-21T17:53:38;7.30;;;6.60;;
18677;SDS011;9469;51.114;13.914;2022-07-21T17:58:45;8.35;;;5.97;;
18677;SDS011;9469;51.114;13.914;2022-07-21T18:03:53;6.50;;;5.80;;
18677;SDS011;9469;51.114;13.914;2022-07-21T18:09:04;8.52;;;5.88;;
18677;SDS011;9469;51.114;13.914;2022-07-21T18:14:08;8.18;;;5.70;;
18677;SDS011;9469;51.114;13.914;2022-07-21T18:19:13;17.15;;;5.97;;
18677;SDS011;9469;51.114;13.914;2022-07-21T18:24:21;6.35;;;5.72;;
18677;SDS011;9469;51.114;13.914;2022-07-21T18:29:26;8.68;;;6.47;;
18677;SDS011;9469;51.114;13.914;2022-07-21T18:34:33;7.38;;;6.10;;
18677;SDS011;9469;51.114;13.914;2022-07-21T18:39:41;6.97;;;6.25;;
18677;SDS011;9469;51.114;13.914;2022-07-21T18:44:46;7.55;;;6.53;;
18677;SDS011;9469;51.114;13.914;2022-07-21T18:49:54;8.30;;;6.70;;
18677;SDS011;9469;51.114;13.914;2022-07-21T18:55:02;7.33;;;6.53;;
18677;SDS011;9469;51.114;13.914;2022-07-21T19:00:08;9.57;;;7.67;;
18677;SDS011;9469;51.114;13.914;2022-07-21T19:05:18;10.13;;;7.63;;
18677;SDS011;9469;51.114;13.914;2022-07-21T19:10:28;9.07;;;7.77;;
18677;SDS011;9469;51.114;13.914;2022-07-21T19:15:34;9.17;;;7.97;;
18677;SDS011;9469;51.114;13.914;2022-07-21T19:20:39;9.63;;;7.63;;
18677;SDS011;9469;51.114;13.914;2022-07-21T19:25:50;8.30;;;7.33;;
18677;SDS011;9469;51.114;13.914;2022-07-21T19:30:55;9.30;;;7.70;;
18677;SDS011;9469;51.114;13.914;2022-07-21T19:36:01;9.73;;;8.17;;
18677;SDS011;9469;51.114;13.914;2022-07-21T19:41:09;9.17;;;8.27;;
18677;SDS011;9469;51.114;13.914;2022-07-21T19:46:17;9.13;;;8.27;;
18677;SDS011;9469;51.114;13.914;2022-07-21T19:51:28;10.70;;;7.90;;
18677;SDS011;9469;51.114;13.914;2022-07-21T19:56:36;9.33;;;8.43;;
18677;SDS011;9469;51.114;13.914;2022-07-21T20:01:41;10.50;;;7.63;;
18677;SDS011;9469;51.114;13.914;2022-07-21T20:06:47;9.57;;;8.57;;
18677;SDS011;9469;51.114;13.914;2022-07-21T20:11:55;9.80;;;8.80;;
18677;SDS011;9469;51.114;13.914;2022-07-21T20:17:00;10.17;;;8.53;;
18677;SDS011;9469;51.114;13.914;2022-07-21T20:22:25;11.60;;;9.10;;
18677;SDS011;9469;51.114;13.914;2022-07-21T20:27:33;10.13;;;9.13;;
18677;SDS011;9469;51.114;13.914;2022-07-21T20:32:39;10.57;;;8.87;;
18677;SDS011;9469;51.114;13.914;2022-07-21T20:37:46;9.60;;;8.60;;
18677;SDS011;9469;51.114;13.914;2022-07-21T20:42:54;10.67;;;9.37;;
18677;SDS011;9469;51.114;13.914;2022-07-21T20:48:00;9.70;;;8.70;;
18677;SDS011;9469;51.114;13.914;2022-07-21T20:53:05;11.63;;;8.70;;
18677;SDS011;9469;51.114;13.914;2022-07-21T20:58:35;9.77;;;8.77;;
18677;SDS011;9469;51.114;13.914;2022-07-21T21:03:40;10.77;;;9.07;;
18677;SDS011;9469;51.114;13.914;2022-07-21T21:08:53;10.30;;;9.20;;
18677;SDS011;9469;51.114;13.914;2022-07-21T21:14:01;10.50;;;9.47;;
18677;SDS011;9469;51.114;13.914;2022-07-21T21:19:07;10.83;;;9.73;;
18677;SDS011;9469;51.114;13.914;2022-07-21T21:24:15;10.90;;;9.10;;
18677;SDS011;9469;51.114;13.914;2022-07-21T21:29:37;11.80;;;9.80;;
18677;SDS011;9469;51.114;13.914;2022-07-21T21:34:42;13.30;;;10.03;;
18677;SDS011;9469;51.114;13.914;2022-07-21T21:39:47;12.13;;;9.87;;
18677;SDS011;9469;51.114;13.914;2022-07-21T21:44:55;12.40;;;9.30;;
18677;SDS011;9469;51.114;13.914;2022-07-21T21:50:03;10.77;;;9.70;;
18677;SDS011;9469;51.114;13.914;2022-07-21T21:55:09;12.23;;;9.73;;
18677;SDS011;9469;51.114;13.914;2022-07-21T22:00:17;13.63;;;9.80;;
18677;SDS011;9469;51.114;13.914;2022-07-21T22:05:24;12.67;;;10.13;;
18677;SDS011;9469;51.114;13.914;2022-07-21T22:10:32;13.30;;;9.53;;
18677;SDS011;9469;51.114;13.914;2022-07-21T22:15:40;10.37;;;9.37;;
18677;SDS011;9469;51.114;13.914;2022-07-21T22:20:46;12.63;;;10.87;;
18677;SDS011;9469;51.114;13.914;2022-07-21T22:25:51;10.80;;;9.70;;
18677;SDS011;9469;51.114;13.914;2022-07-21T22:30:58;11.10;;;10.00;;
18677;SDS011;9469;51.114;13.914;2022-07-21T22:36:05;13.20;;;10.37;;
18677;SDS011;9469;51.114;13.914;2022-07-21T22:41:11;12.13;;;10.93;;
18677;SDS011;9469;51.114;13.914;2022-07-21T22:46:19;13.10;;;10.73;;
18677;SDS011;9469;51.114;13.914;2022-07-21T22:51:25;11.80;;;9.60;;
18677;SDS011;9469;51.114;13.914;2022-07-21T22:56:30;12.87;;;10.63;;
18677;SDS011;9469;51.114;13.914;2022-07-21T23:01:38;13.37;;;10.97;;
18677;SDS011;9469;51.114;13.914;2022-07-21T23:06:43;14.90;;;10.53;;
18677;SDS011;9469;51.114;13.914;2022-07-21T23:11:48;12.63;;;11.33;;
18677;SDS011;9469;51.114;13.914;2022-07-21T23:16:56;14.10;;;11.17;;
18677;SDS011;9469;51.114;13.914;2022-07-21T23:22:01;13.87;;;11.27;;
18677;SDS011;9469;51.114;13.914;2022-07-21T23:27:06;12.60;;;11.00;;
18677;SDS011;9469;51.114;13.914;2022-07-21T23:32:14;12.60;;;11.40;;
18677;SDS011;9469;51.114;13.914;2022-07-21T23:37:20;14.03;;;10.93;;
18677;SDS011;9469;51.114;13.914;2022-07-21T23:42:24;14.57;;;10.73;;
18677;SDS011;9469;51.114;13.914;2022-07-21T23:47:35;11.87;;;10.47;;
18677;SDS011;9469;51.114;13.914;2022-07-21T23:52:40;12.77;;;10.40;;
18677;SDS011;9469;51.114;13.914;2022-07-21T23:57:45;12.77;;;11.53;;
